sensor_id;sensor_type;location;lat;lon;timestamp;noise_LAeq;noise_LA_min;noise_LA_max;noise_LA01;noise_LA95
68279;Laerm;55108;51.790;10.960;2024-02-23T00:00:49;51.65;39.85;68.28;;
68279;Laerm;55108;51.790;10.960;2024-02-23T00:03:14;56.66;40.60;75.27;;
68279;Laerm;55108;51.790;10.960;2024-02-23T00:05:40;45.96;39.06;60.97;;
68279;Laerm;55108;51.790;10.960;2024-02-23T00:08:06;49.59;39.05;66.82;;
68279;Laerm;55108;51.790;10.960;2024-02-23T00:10:34;42.80;38.06;53.07;;
68279;Laerm;55108;51.790;10.960;2024-02-23T00:13:00;45.68;37.81;58.45;;
68279;Laerm;55108;51.790;10.960;2024-02-23T00:15:26;43.69;37.84;56.90;;
68279;Laerm;55108;51.790;10.960;2024-02-23T00:17:52;48.79;37.19;66.82;;
68279;Laerm;55108;51.790;10.960;2024-02-23T00:20:17;57.31;39.82;75.62;;
68279;Laerm;55108;51.790;10.960;2024-02-23T00:22:43;51.00;39.03;69.83;;
68279;Laerm;55108;51.790;10.960;2024-02-23T00:25:09;52.44;38.18;69.34;;
68279;Laerm;55108;51.790;10.960;2024-02-23T00:27:34;54.49;36.62;70.41;;
68279;Laerm;55108;51.790;10.960;2024-02-23T00:30:00;49.39;37.19;72.02;;
68279;Laerm;55108;51.790;10.960;2024-02-23T00:32:26;42.48;36.50;56.05;;
68279;Laerm;55108;51.790;10.960;2024-02-23T00:34:52;40.73;36.23;53.02;;
68279;Laerm;55108;51.790;10.960;2024-02-23T00:37:17;40.49;35.62;55.74;;
68279;Laerm;55108;51.790;10.960;2024-02-23T00:39:43;45.54;36.40;62.72;;
68279;Laerm;55108;51.790;10.960;2024-02-23T00:42:09;42.45;36.52;58.35;;
68279;Laerm;55108;51.790;10.960;2024-02-23T00:44:34;46.34;36.27;66.63;;
68279;Laerm;55108;51.790;10.960;2024-02-23T00:47:01;49.05;37.64;66.62;;
68279;Laerm;55108;51.790;10.960;2024-02-23T00:49:29;40.37;36.48;55.43;;
68279;Laerm;55108;51.790;10.960;2024-02-23T00:51:55;40.92;35.75;54.16;;
68279;Laerm;55108;51.790;10.960;2024-02-23T00:54:21;42.19;36.04;58.80;;
68279;Laerm;55108;51.790;10.960;2024-02-23T00:56:46;49.02;35.82;66.54;;
68279;Laerm;55108;51.790;10.960;2024-02-23T00:59:12;39.18;35.60;47.90;;
68279;Laerm;55108;51.790;10.960;2024-02-23T01:01:38;42.98;36.20;57.70;;
68279;Laerm;55108;51.790;10.960;2024-02-23T01:04:04;60.35;36.69;79.05;;
68279;Laerm;55108;51.790;10.960;2024-02-23T01:06:29;40.62;36.32;54.12;;
68279;Laerm;55108;51.790;10.960;2024-02-23T01:08:55;47.17;37.13;61.10;;
68279;Laerm;55108;51.790;10.960;2024-02-23T01:11:21;53.05;36.46;67.42;;
68279;Laerm;55108;51.790;10.960;2024-02-23T01:13:46;39.23;35.60;53.40;;
68279;Laerm;55108;51.790;10.960;2024-02-23T01:16:12;40.80;35.81;54.69;;
68279;Laerm;55108;51.790;10.960;2024-02-23T01:18:38;38.43;35.23;47.57;;
68279;Laerm;55108;51.790;10.960;2024-02-23T01:21:04;49.08;35.42;64.62;;
68279;Laerm;55108;51.790;10.960;2024-02-23T01:23:29;37.93;35.60;47.47;;
68279;Laerm;55108;51.790;10.960;2024-02-23T01:25:55;43.61;35.39;58.68;;
68279;Laerm;55108;51.790;10.960;2024-02-23T01:28:21;39.03;36.35;46.22;;
68279;Laerm;55108;51.790;10.960;2024-02-23T01:30:47;39.30;35.74;54.13;;
68279;Laerm;55108;51.790;10.960;2024-02-23T01:33:13;41.52;36.11;61.03;;
68279;Laerm;55108;51.790;10.960;2024-02-23T01:35:39;47.70;35.77;62.06;;
68279;Laerm;55108;51.790;10.960;2024-02-23T01:38:05;54.55;35.84;73.66;;
68279;Laerm;55108;51.790;10.960;2024-02-23T01:40:31;40.69;35.84;53.30;;
68279;Laerm;55108;51.790;10.960;2024-02-23T01:43:02;39.07;35.47;54.73;;
68279;Laerm;55108;51.790;10.960;2024-02-23T01:45:29;36.68;34.96;44.68;;
68279;Laerm;55108;51.790;10.960;2024-02-23T01:47:55;39.91;35.10;63.74;;
68279;Laerm;55108;51.790;10.960;2024-02-23T01:50:20;37.38;35.08;55.23;;
68279;Laerm;55108;51.790;10.960;2024-02-23T01:52:46;38.21;35.39;44.00;;
68279;Laerm;55108;51.790;10.960;2024-02-23T01:55:12;42.25;37.16;54.68;;
68279;Laerm;55108;51.790;10.960;2024-02-23T01:57:38;55.78;37.26;72.83;;
68279;Laerm;55108;51.790;10.960;2024-02-23T02:00:04;51.02;37.80;69.86;;
68279;Laerm;55108;51.790;10.960;2024-02-23T02:02:31;51.57;35.96;68.77;;
68279;Laerm;55108;51.790;10.960;2024-02-23T02:04:57;43.96;36.16;57.08;;
68279;Laerm;55108;51.790;10.960;2024-02-23T02:07:23;38.90;36.14;53.99;;
68279;Laerm;55108;51.790;10.960;2024-02-23T02:09:50;48.70;36.80;63.21;;
68279;Laerm;55108;51.790;10.960;2024-02-23T02:12:25;50.65;41.27;64.37;;
68279;Laerm;55108;51.790;10.960;2024-02-23T02:14:55;48.30;39.93;64.14;;
68279;Laerm;55108;51.790;10.960;2024-02-23T02:17:21;48.61;38.78;66.74;;
68279;Laerm;55108;51.790;10.960;2024-02-23T02:19:50;54.29;42.12;69.38;;
68279;Laerm;55108;51.790;10.960;2024-02-23T02:22:15;58.91;39.07;75.33;;
68279;Laerm;55108;51.790;10.960;2024-02-23T02:24:41;48.28;38.77;64.66;;
68279;Laerm;55108;51.790;10.960;2024-02-23T02:27:08;44.27;39.12;53.29;;
68279;Laerm;55108;51.790;10.960;2024-02-23T02:29:37;47.95;39.01;62.21;;
68279;Laerm;55108;51.790;10.960;2024-02-23T02:32:03;49.24;39.21;67.67;;
68279;Laerm;55108;51.790;10.960;2024-02-23T02:34:28;50.65;38.45;67.69;;
68279;Laerm;55108;51.790;10.960;2024-02-23T02:36:54;46.91;38.38;64.31;;
68279;Laerm;55108;51.790;10.960;2024-02-23T02:39:20;51.30;38.78;69.92;;
68279;Laerm;55108;51.790;10.960;2024-02-23T02:41:47;45.88;38.95;57.91;;
68279;Laerm;55108;51.790;10.960;2024-02-23T02:44:13;43.58;37.67;58.09;;
68279;Laerm;55108;51.790;10.960;2024-02-23T02:46:39;42.82;36.28;55.98;;
68279;Laerm;55108;51.790;10.960;2024-02-23T02:49:05;57.54;38.32;74.25;;
68279;Laerm;55108;51.790;10.960;2024-02-23T02:51:31;53.21;35.94;67.07;;
68279;Laerm;55108;51.790;10.960;2024-02-23T02:53:56;60.11;36.57;79.83;;
68279;Laerm;55108;51.790;10.960;2024-02-23T02:56:23;42.92;37.19;54.75;;
68279;Laerm;55108;51.790;10.960;2024-02-23T02:58:48;49.11;37.00;67.10;;
68279;Laerm;55108;51.790;10.960;2024-02-23T03:01:14;46.81;38.10;63.73;;
68279;Laerm;55108;51.790;10.960;2024-02-23T03:03:40;49.01;37.71;63.80;;
68279;Laerm;55108;51.790;10.960;2024-02-23T03:06:05;55.13;35.60;70.42;;
68279;Laerm;55108;51.790;10.960;2024-02-23T03:08:31;52.61;35.93;68.13;;
68279;Laerm;55108;51.790;10.960;2024-02-23T03:10:57;54.04;35.34;72.08;;
68279;Laerm;55108;51.790;10.960;2024-02-23T03:13:23;57.15;34.99;73.11;;
68279;Laerm;55108;51.790;10.960;2024-02-23T03:15:49;51.05;35.37;69.17;;
68279;Laerm;55108;51.790;10.960;2024-02-23T03:18:15;51.44;35.26;67.91;;
68279;Laerm;55108;51.790;10.960;2024-02-23T03:20:41;60.98;35.90;78.61;;
68279;Laerm;55108;51.790;10.960;2024-02-23T03:23:07;39.16;34.63;46.06;;
68279;Laerm;55108;51.790;10.960;2024-02-23T03:25:32;62.25;34.86;79.13;;
68279;Laerm;55108;51.790;10.960;2024-02-23T03:27:58;51.77;34.92;69.74;;
68279;Laerm;55108;51.790;10.960;2024-02-23T03:30:24;55.92;35.19;74.99;;
68279;Laerm;55108;51.790;10.960;2024-02-23T03:32:50;52.19;36.68;68.76;;
68279;Laerm;55108;51.790;10.960;2024-02-23T03:35:15;56.53;36.86;71.88;;
68279;Laerm;55108;51.790;10.960;2024-02-23T03:37:41;39.75;35.65;52.45;;
68279;Laerm;55108;51.790;10.960;2024-02-23T03:40:07;61.99;34.51;77.60;;
68279;Laerm;55108;51.790;10.960;2024-02-23T03:42:35;39.68;34.66;49.24;;
68279;Laerm;55108;51.790;10.960;2024-02-23T03:45:01;53.10;35.57;69.95;;
68279;Laerm;55108;51.790;10.960;2024-02-23T03:47:27;38.49;35.72;45.77;;
68279;Laerm;55108;51.790;10.960;2024-02-23T03:49:53;53.94;36.75;68.03;;
68279;Laerm;55108;51.790;10.960;2024-02-23T03:52:19;61.63;35.34;79.12;;
68279;Laerm;55108;51.790;10.960;2024-02-23T03:54:45;57.04;35.44;73.53;;
68279;Laerm;55108;51.790;10.960;2024-02-23T03:57:10;50.31;34.42;67.24;;
68279;Laerm;55108;51.790;10.960;2024-02-23T03:59:36;48.88;35.84;63.99;;
68279;Laerm;55108;51.790;10.960;2024-02-23T04:02:06;56.49;37.09;74.87;;
68279;Laerm;55108;51.790;10.960;2024-02-23T04:04:32;51.13;40.56;66.05;;
68279;Laerm;55108;51.790;10.960;2024-02-23T04:06:57;61.31;40.18;77.09;;
68279;Laerm;55108;51.790;10.960;2024-02-23T04:09:23;56.54;37.19;71.06;;
68279;Laerm;55108;51.790;10.960;2024-02-23T04:11:49;58.45;37.87;74.04;;
68279;Laerm;55108;51.790;10.960;2024-02-23T04:14:15;59.63;36.29;76.38;;
68279;Laerm;55108;51.790;10.960;2024-02-23T04:16:41;39.32;35.50;47.97;;
68279;Laerm;55108;51.790;10.960;2024-02-23T04:19:06;56.71;36.31;74.53;;
68279;Laerm;55108;51.790;10.960;2024-02-23T04:21:32;58.32;36.81;72.57;;
68279;Laerm;55108;51.790;10.960;2024-02-23T04:23:58;60.83;37.60;71.76;;
68279;Laerm;55108;51.790;10.960;2024-02-23T04:26:24;58.04;37.57;72.48;;
68279;Laerm;55108;51.790;10.960;2024-02-23T04:28:49;61.73;37.95;73.35;;
68279;Laerm;55108;51.790;10.960;2024-02-23T04:31:15;52.61;36.73;67.95;;
68279;Laerm;55108;51.790;10.960;2024-02-23T04:33:41;60.25;39.26;74.73;;
68279;Laerm;55108;51.790;10.960;2024-02-23T04:36:06;57.96;37.03;74.61;;
68279;Laerm;55108;51.790;10.960;2024-02-23T04:38:32;65.05;40.29;83.70;;
68279;Laerm;55108;51.790;10.960;2024-02-23T04:41:02;60.30;39.17;71.12;;
68279;Laerm;55108;51.790;10.960;2024-02-23T04:43:28;60.13;38.73;72.83;;
68279;Laerm;55108;51.790;10.960;2024-02-23T04:45:53;63.74;39.30;72.88;;
68279;Laerm;55108;51.790;10.960;2024-02-23T04:48:19;63.00;40.28;74.69;;
68279;Laerm;55108;51.790;10.960;2024-02-23T04:50:45;63.10;37.28;75.82;;
68279;Laerm;55108;51.790;10.960;2024-02-23T04:53:11;64.93;40.07;76.94;;
68279;Laerm;55108;51.790;10.960;2024-02-23T04:55:37;62.26;37.62;75.07;;
68279;Laerm;55108;51.790;10.960;2024-02-23T04:58:02;64.24;39.29;76.30;;
68279;Laerm;55108;51.790;10.960;2024-02-23T05:00:28;61.30;38.17;77.40;;
68279;Laerm;55108;51.790;10.960;2024-02-23T05:02:58;58.95;36.52;74.75;;
68279;Laerm;55108;51.790;10.960;2024-02-23T05:05:24;64.10;38.72;77.54;;
68279;Laerm;55108;51.790;10.960;2024-02-23T05:07:50;60.63;38.74;74.10;;
68279;Laerm;55108;51.790;10.960;2024-02-23T05:10:15;64.20;38.75;74.93;;
68279;Laerm;55108;51.790;10.960;2024-02-23T05:12:42;62.40;41.36;75.85;;
68279;Laerm;55108;51.790;10.960;2024-02-23T05:15:08;64.63;44.89;76.21;;
68279;Laerm;55108;51.790;10.960;2024-02-23T05:17:34;60.54;39.58;75.55;;
68279;Laerm;55108;51.790;10.960;2024-02-23T05:19:59;61.62;40.05;71.85;;
68279;Laerm;55108;51.790;10.960;2024-02-23T05:22:25;64.09;41.33;73.99;;
68279;Laerm;55108;51.790;10.960;2024-02-23T05:24:51;62.50;39.03;75.30;;
68279;Laerm;55108;51.790;10.960;2024-02-23T05:27:16;63.60;37.40;74.00;;
68279;Laerm;55108;51.790;10.960;2024-02-23T05:29:42;64.41;39.92;79.33;;
68279;Laerm;55108;51.790;10.960;2024-02-23T05:32:08;65.20;43.02;79.95;;
68279;Laerm;55108;51.790;10.960;2024-02-23T05:34:34;61.86;43.10;72.99;;
68279;Laerm;55108;51.790;10.960;2024-02-23T05:37:00;64.86;42.08;75.92;;
68279;Laerm;55108;51.790;10.960;2024-02-23T05:39:26;61.97;40.10;72.61;;
68279;Laerm;55108;51.790;10.960;2024-02-23T05:41:52;63.72;41.62;75.34;;
68279;Laerm;55108;51.790;10.960;2024-02-23T05:44:18;64.66;41.70;76.22;;
68279;Laerm;55108;51.790;10.960;2024-02-23T05:46:44;64.29;40.95;74.16;;
68279;Laerm;55108;51.790;10.960;2024-02-23T05:49:09;61.17;44.10;72.43;;
68279;Laerm;55108;51.790;10.960;2024-02-23T05:51:35;58.91;42.01;70.91;;
68279;Laerm;55108;51.790;10.960;2024-02-23T05:54:01;63.67;42.57;77.42;;
68279;Laerm;55108;51.790;10.960;2024-02-23T05:56:27;61.66;41.69;71.43;;
68279;Laerm;55108;51.790;10.960;2024-02-23T05:58:52;64.88;44.61;75.32;;
68279;Laerm;55108;51.790;10.960;2024-02-23T06:01:19;67.81;64.53;74.39;;
68279;Laerm;55108;51.790;10.960;2024-02-23T06:03:45;67.13;64.27;73.75;;
68279;Laerm;55108;51.790;10.960;2024-02-23T06:06:11;67.81;64.36;76.55;;
68279;Laerm;55108;51.790;10.960;2024-02-23T06:08:36;67.42;63.68;80.35;;
68279;Laerm;55108;51.790;10.960;2024-02-23T06:11:03;67.27;63.66;74.23;;
68279;Laerm;55108;51.790;10.960;2024-02-23T06:13:31;69.55;63.51;84.69;;
68279;Laerm;55108;51.790;10.960;2024-02-23T06:15:57;64.53;43.43;78.55;;
68279;Laerm;55108;51.790;10.960;2024-02-23T06:18:23;64.19;42.02;74.35;;
68279;Laerm;55108;51.790;10.960;2024-02-23T06:20:49;63.72;40.96;74.15;;
68279;Laerm;55108;51.790;10.960;2024-02-23T06:23:15;63.47;42.44;74.18;;
68279;Laerm;55108;51.790;10.960;2024-02-23T06:25:41;66.12;43.49;76.45;;
68279;Laerm;55108;51.790;10.960;2024-02-23T06:28:07;61.87;42.11;73.21;;
68279;Laerm;55108;51.790;10.960;2024-02-23T06:30:32;66.04;41.29;76.59;;
68279;Laerm;55108;51.790;10.960;2024-02-23T06:32:58;62.16;40.35;72.53;;
68279;Laerm;55108;51.790;10.960;2024-02-23T06:35:24;65.93;41.43;80.12;;
68279;Laerm;55108;51.790;10.960;2024-02-23T06:37:49;65.82;45.16;75.29;;
68279;Laerm;55108;51.790;10.960;2024-02-23T06:40:15;64.35;42.45;73.56;;
68279;Laerm;55108;51.790;10.960;2024-02-23T06:42:41;66.37;43.36;80.50;;
68279;Laerm;55108;51.790;10.960;2024-02-23T06:45:07;61.97;42.55;72.67;;
68279;Laerm;55108;51.790;10.960;2024-02-23T06:47:33;62.66;43.60;75.20;;
68279;Laerm;55108;51.790;10.960;2024-02-23T06:49:59;65.34;44.88;76.27;;
68279;Laerm;55108;51.790;10.960;2024-02-23T06:52:24;64.08;47.16;76.16;;
68279;Laerm;55108;51.790;10.960;2024-02-23T06:54:51;65.11;47.94;77.18;;
68279;Laerm;55108;51.790;10.960;2024-02-23T06:57:17;63.93;40.91;75.44;;
68279;Laerm;55108;51.790;10.960;2024-02-23T06:59:42;64.12;40.19;75.96;;
68279;Laerm;55108;51.790;10.960;2024-02-23T07:02:08;63.79;43.56;73.90;;
68279;Laerm;55108;51.790;10.960;2024-02-23T07:04:34;63.66;43.70;73.19;;
68279;Laerm;55108;51.790;10.960;2024-02-23T07:07:00;63.82;44.36;73.63;;
68279;Laerm;55108;51.790;10.960;2024-02-23T07:09:32;64.43;44.42;74.49;;
68279;Laerm;55108;51.790;10.960;2024-02-23T07:11:57;65.61;39.60;78.81;;
68279;Laerm;55108;51.790;10.960;2024-02-23T07:14:23;63.74;37.37;79.21;;
68279;Laerm;55108;51.790;10.960;2024-02-23T07:16:49;62.92;37.43;74.10;;
68279;Laerm;55108;51.790;10.960;2024-02-23T07:19:14;64.36;37.17;79.03;;
68279;Laerm;55108;51.790;10.960;2024-02-23T07:21:40;64.03;40.14;75.34;;
68279;Laerm;55108;51.790;10.960;2024-02-23T07:24:06;60.25;38.70;72.62;;
68279;Laerm;55108;51.790;10.960;2024-02-23T07:26:32;67.28;45.76;82.94;;
68279;Laerm;55108;51.790;10.960;2024-02-23T07:28:57;59.32;39.62;69.32;;
68279;Laerm;55108;51.790;10.960;2024-02-23T07:31:23;66.07;43.98;75.92;;
68279;Laerm;55108;51.790;10.960;2024-02-23T07:33:49;61.81;41.82;72.79;;
68279;Laerm;55108;51.790;10.960;2024-02-23T07:36:16;65.71;49.00;78.78;;
68279;Laerm;55108;51.790;10.960;2024-02-23T07:38:41;61.12;40.36;72.48;;
68279;Laerm;55108;51.790;10.960;2024-02-23T07:41:09;65.96;44.06;82.07;;
68279;Laerm;55108;51.790;10.960;2024-02-23T07:43:34;62.44;38.23;76.01;;
68279;Laerm;55108;51.790;10.960;2024-02-23T07:46:01;66.05;44.16;80.11;;
68279;Laerm;55108;51.790;10.960;2024-02-23T07:48:27;64.04;41.30;74.79;;
68279;Laerm;55108;51.790;10.960;2024-02-23T07:50:53;64.83;39.06;75.84;;
68279;Laerm;55108;51.790;10.960;2024-02-23T07:53:19;64.11;47.83;73.41;;
68279;Laerm;55108;51.790;10.960;2024-02-23T07:55:44;65.16;41.34;75.83;;
68279;Laerm;55108;51.790;10.960;2024-02-23T07:58:10;64.01;43.60;74.68;;
68279;Laerm;55108;51.790;10.960;2024-02-23T08:00:36;65.38;43.78;79.26;;
68279;Laerm;55108;51.790;10.960;2024-02-23T08:03:03;65.65;48.92;77.60;;
68279;Laerm;55108;51.790;10.960;2024-02-23T08:05:29;63.54;43.54;72.72;;
68279;Laerm;55108;51.790;10.960;2024-02-23T08:07:54;63.19;43.54;73.84;;
68279;Laerm;55108;51.790;10.960;2024-02-23T08:10:20;64.51;46.85;72.97;;
68279;Laerm;55108;51.790;10.960;2024-02-23T08:12:46;67.25;43.77;78.22;;
68279;Laerm;55108;51.790;10.960;2024-02-23T08:15:12;63.55;44.28;76.25;;
68279;Laerm;55108;51.790;10.960;2024-02-23T08:17:38;64.74;46.42;72.81;;
68279;Laerm;55108;51.790;10.960;2024-02-23T08:20:04;63.88;43.14;71.55;;
68279;Laerm;55108;51.790;10.960;2024-02-23T08:22:30;66.24;48.49;76.19;;
68279;Laerm;55108;51.790;10.960;2024-02-23T08:24:56;64.70;44.69;72.78;;
68279;Laerm;55108;51.790;10.960;2024-02-23T08:27:21;63.69;46.26;73.43;;
68279;Laerm;55108;51.790;10.960;2024-02-23T08:29:47;66.58;42.46;78.36;;
68279;Laerm;55108;51.790;10.960;2024-02-23T08:32:13;63.52;40.10;75.55;;
68279;Laerm;55108;51.790;10.960;2024-02-23T08:34:39;64.26;43.02;74.90;;
68279;Laerm;55108;51.790;10.960;2024-02-23T08:37:04;62.95;40.15;73.22;;
68279;Laerm;55108;51.790;10.960;2024-02-23T08:39:30;64.69;42.56;74.21;;
68279;Laerm;55108;51.790;10.960;2024-02-23T08:41:56;62.95;40.95;72.66;;
68279;Laerm;55108;51.790;10.960;2024-02-23T08:44:22;62.29;40.94;72.09;;
68279;Laerm;55108;51.790;10.960;2024-02-23T08:46:48;65.88;48.25;78.20;;
68279;Laerm;55108;51.790;10.960;2024-02-23T08:49:13;66.25;44.17;77.58;;
68279;Laerm;55108;51.790;10.960;2024-02-23T08:51:39;63.61;44.53;73.77;;
68279;Laerm;55108;51.790;10.960;2024-02-23T08:54:05;63.44;42.61;72.52;;
68279;Laerm;55108;51.790;10.960;2024-02-23T08:56:39;64.07;42.60;74.30;;
68279;Laerm;55108;51.790;10.960;2024-02-23T08:59:07;62.28;42.68;72.42;;
68279;Laerm;55108;51.790;10.960;2024-02-23T09:01:33;63.83;43.17;75.24;;
68279;Laerm;55108;51.790;10.960;2024-02-23T09:03:58;66.06;46.53;80.33;;
68279;Laerm;55108;51.790;10.960;2024-02-23T09:06:24;63.83;44.99;75.33;;
68279;Laerm;55108;51.790;10.960;2024-02-23T09:08:50;66.71;43.61;83.52;;
68279;Laerm;55108;51.790;10.960;2024-02-23T09:11:16;64.53;43.16;78.53;;
68279;Laerm;55108;51.790;10.960;2024-02-23T09:13:41;64.65;46.99;75.16;;
68279;Laerm;55108;51.790;10.960;2024-02-23T09:16:07;65.08;43.68;76.23;;
68279;Laerm;55108;51.790;10.960;2024-02-23T09:18:34;62.55;41.36;73.30;;
68279;Laerm;55108;51.790;10.960;2024-02-23T09:20:59;64.68;41.45;73.79;;
68279;Laerm;55108;51.790;10.960;2024-02-23T09:23:25;64.19;42.95;73.38;;
68279;Laerm;55108;51.790;10.960;2024-02-23T09:25:51;64.66;41.41;77.71;;
68279;Laerm;55108;51.790;10.960;2024-02-23T09:28:17;62.90;45.32;72.81;;
68279;Laerm;55108;51.790;10.960;2024-02-23T09:30:42;63.52;41.53;73.84;;
68279;Laerm;55108;51.790;10.960;2024-02-23T09:33:08;66.49;45.71;79.17;;
68279;Laerm;55108;51.790;10.960;2024-02-23T09:35:34;64.40;42.20;73.29;;
68279;Laerm;55108;51.790;10.960;2024-02-23T09:37:59;64.05;44.52;73.65;;
68279;Laerm;55108;51.790;10.960;2024-02-23T09:40:25;60.31;41.18;73.63;;
68279;Laerm;55108;51.790;10.960;2024-02-23T09:42:55;64.01;40.08;72.77;;
68279;Laerm;55108;51.790;10.960;2024-02-23T09:45:22;65.10;43.56;75.41;;
68279;Laerm;55108;51.790;10.960;2024-02-23T09:47:48;64.08;40.56;74.36;;
68279;Laerm;55108;51.790;10.960;2024-02-23T09:50:14;67.70;47.64;80.57;;
68279;Laerm;55108;51.790;10.960;2024-02-23T09:52:40;66.60;44.78;78.47;;
68279;Laerm;55108;51.790;10.960;2024-02-23T09:55:06;63.75;44.30;73.92;;
68279;Laerm;55108;51.790;10.960;2024-02-23T09:57:32;65.09;46.13;76.80;;
68279;Laerm;55108;51.790;10.960;2024-02-23T09:59:58;63.67;40.49;74.64;;
68279;Laerm;55108;51.790;10.960;2024-02-23T10:02:24;63.02;42.31;72.28;;
68279;Laerm;55108;51.790;10.960;2024-02-23T10:04:50;63.98;44.21;79.49;;
68279;Laerm;55108;51.790;10.960;2024-02-23T10:07:16;63.80;43.31;71.43;;
68279;Laerm;55108;51.790;10.960;2024-02-23T10:09:42;64.82;44.42;74.60;;
68279;Laerm;55108;51.790;10.960;2024-02-23T10:12:08;65.78;39.72;77.51;;
68279;Laerm;55108;51.790;10.960;2024-02-23T10:14:34;63.66;40.44;74.39;;
68279;Laerm;55108;51.790;10.960;2024-02-23T10:16:59;64.26;41.82;73.43;;
68279;Laerm;55108;51.790;10.960;2024-02-23T10:19:26;62.74;42.17;72.18;;
68279;Laerm;55108;51.790;10.960;2024-02-23T10:21:54;63.87;44.64;71.46;;
68279;Laerm;55108;51.790;10.960;2024-02-23T10:24:20;63.13;40.82;75.37;;
68279;Laerm;55108;51.790;10.960;2024-02-23T10:26:46;64.19;42.01;78.65;;
68279;Laerm;55108;51.790;10.960;2024-02-23T10:29:12;63.04;41.66;72.98;;
68279;Laerm;55108;51.790;10.960;2024-02-23T10:31:38;64.16;43.33;73.44;;
68279;Laerm;55108;51.790;10.960;2024-02-23T10:34:07;64.01;40.25;75.94;;
68279;Laerm;55108;51.790;10.960;2024-02-23T10:36:36;65.24;44.38;73.94;;
68279;Laerm;55108;51.790;10.960;2024-02-23T10:39:05;64.31;42.13;74.83;;
68279;Laerm;55108;51.790;10.960;2024-02-23T10:41:32;64.70;45.58;74.39;;
68279;Laerm;55108;51.790;10.960;2024-02-23T10:44:00;64.58;42.65;76.58;;
68279;Laerm;55108;51.790;10.960;2024-02-23T10:46:26;63.36;44.03;74.35;;
68279;Laerm;55108;51.790;10.960;2024-02-23T10:48:53;68.20;50.57;77.45;;
68279;Laerm;55108;51.790;10.960;2024-02-23T10:51:19;65.12;47.61;77.93;;
68279;Laerm;55108;51.790;10.960;2024-02-23T10:53:46;65.91;47.52;83.48;;
68279;Laerm;55108;51.790;10.960;2024-02-23T10:56:12;63.81;40.94;75.96;;
68279;Laerm;55108;51.790;10.960;2024-02-23T10:58:37;66.52;46.44;78.39;;
68279;Laerm;55108;51.790;10.960;2024-02-23T11:01:04;65.73;49.27;74.53;;
68279;Laerm;55108;51.790;10.960;2024-02-23T11:03:32;67.01;49.46;84.18;;
68279;Laerm;55108;51.790;10.960;2024-02-23T11:06:01;63.31;41.05;77.44;;
68279;Laerm;55108;51.790;10.960;2024-02-23T11:08:28;66.45;42.90;78.66;;
68279;Laerm;55108;51.790;10.960;2024-02-23T11:10:53;64.01;40.66;74.20;;
68279;Laerm;55108;51.790;10.960;2024-02-23T11:13:37;63.70;39.67;72.57;;
68279;Laerm;55108;51.790;10.960;2024-02-23T11:16:04;64.86;42.42;75.85;;
68279;Laerm;55108;51.790;10.960;2024-02-23T11:18:30;65.89;38.70;80.17;;
68279;Laerm;55108;51.790;10.960;2024-02-23T11:21:00;63.06;40.75;78.23;;
68279;Laerm;55108;51.790;10.960;2024-02-23T11:26:27;61.80;42.59;74.03;;
68279;Laerm;55108;51.790;10.960;2024-02-23T11:28:53;65.00;44.48;81.14;;
68279;Laerm;55108;51.790;10.960;2024-02-23T11:31:19;61.93;40.57;71.95;;
68279;Laerm;55108;51.790;10.960;2024-02-23T11:33:48;64.47;43.00;76.13;;
68279;Laerm;55108;51.790;10.960;2024-02-23T11:36:21;65.47;41.25;77.20;;
68279;Laerm;55108;51.790;10.960;2024-02-23T11:38:47;62.65;40.61;72.54;;
68279;Laerm;55108;51.790;10.960;2024-02-23T11:41:13;64.56;46.44;72.97;;
68279;Laerm;55108;51.790;10.960;2024-02-23T11:43:39;64.39;44.50;73.39;;
68279;Laerm;55108;51.790;10.960;2024-02-23T11:46:06;64.80;46.09;74.21;;
68279;Laerm;55108;51.790;10.960;2024-02-23T11:48:32;65.64;39.52;75.98;;
68279;Laerm;55108;51.790;10.960;2024-02-23T11:50:58;64.70;48.41;75.32;;
68279;Laerm;55108;51.790;10.960;2024-02-23T11:53:24;64.65;47.14;77.17;;
68279;Laerm;55108;51.790;10.960;2024-02-23T11:55:52;64.56;43.75;77.12;;
68279;Laerm;55108;51.790;10.960;2024-02-23T11:58:17;64.09;45.46;73.73;;
68279;Laerm;55108;51.790;10.960;2024-02-23T12:00:43;63.80;39.41;73.50;;
68279;Laerm;55108;51.790;10.960;2024-02-23T12:03:10;65.98;48.98;72.84;;
68279;Laerm;55108;51.790;10.960;2024-02-23T12:05:36;65.00;45.81;76.60;;
68279;Laerm;55108;51.790;10.960;2024-02-23T12:08:02;65.09;44.88;73.56;;
68279;Laerm;55108;51.790;10.960;2024-02-23T12:10:28;64.47;43.65;72.52;;
68279;Laerm;55108;51.790;10.960;2024-02-23T12:12:54;63.24;42.39;74.61;;
68279;Laerm;55108;51.790;10.960;2024-02-23T12:15:20;66.20;52.08;77.06;;
68279;Laerm;55108;51.790;10.960;2024-02-23T12:17:49;64.52;45.06;73.43;;
68279;Laerm;55108;51.790;10.960;2024-02-23T12:20:15;63.74;41.82;72.46;;
68279;Laerm;55108;51.790;10.960;2024-02-23T12:22:41;65.78;47.13;76.57;;
68279;Laerm;55108;51.790;10.960;2024-02-23T12:25:07;66.91;46.64;82.79;;
68279;Laerm;55108;51.790;10.960;2024-02-23T12:27:33;64.27;44.57;75.18;;
68279;Laerm;55108;51.790;10.960;2024-02-23T12:29:59;67.98;40.39;80.95;;
68279;Laerm;55108;51.790;10.960;2024-02-23T12:32:24;65.47;44.74;74.10;;
68279;Laerm;55108;51.790;10.960;2024-02-23T12:34:50;64.93;41.66;78.89;;
68279;Laerm;55108;51.790;10.960;2024-02-23T12:37:17;65.15;45.26;73.59;;
68279;Laerm;55108;51.790;10.960;2024-02-23T12:39:43;65.27;45.22;72.28;;
68279;Laerm;55108;51.790;10.960;2024-02-23T12:42:09;63.34;43.78;73.26;;
68279;Laerm;55108;51.790;10.960;2024-02-23T12:44:35;65.82;42.60;76.18;;
68279;Laerm;55108;51.790;10.960;2024-02-23T12:47:00;66.67;45.90;78.10;;
68279;Laerm;55108;51.790;10.960;2024-02-23T12:49:26;63.93;43.51;74.83;;
68279;Laerm;55108;51.790;10.960;2024-02-23T12:51:52;64.44;42.41;76.50;;
68279;Laerm;55108;51.790;10.960;2024-02-23T12:54:18;66.21;43.67;78.05;;
68279;Laerm;55108;51.790;10.960;2024-02-23T12:56:43;64.27;45.27;74.96;;
68279;Laerm;55108;51.790;10.960;2024-02-23T12:59:09;65.98;49.52;77.83;;
68279;Laerm;55108;51.790;10.960;2024-02-23T13:01:35;66.42;48.49;78.19;;
68279;Laerm;55108;51.790;10.960;2024-02-23T13:04:02;64.42;47.76;74.88;;
68279;Laerm;55108;51.790;10.960;2024-02-23T13:06:28;63.98;40.30;73.21;;
68279;Laerm;55108;51.790;10.960;2024-02-23T13:08:54;71.23;46.74;91.41;;
68279;Laerm;55108;51.790;10.960;2024-02-23T13:11:20;64.43;42.55;73.23;;
68279;Laerm;55108;51.790;10.960;2024-02-23T13:13:45;64.27;44.68;73.26;;
68279;Laerm;55108;51.790;10.960;2024-02-23T13:16:12;65.63;44.57;77.61;;
68279;Laerm;55108;51.790;10.960;2024-02-23T13:18:40;64.25;46.53;71.90;;
68279;Laerm;55108;51.790;10.960;2024-02-23T13:21:05;63.52;39.54;73.77;;
68279;Laerm;55108;51.790;10.960;2024-02-23T13:23:31;65.16;42.10;75.09;;
68279;Laerm;55108;51.790;10.960;2024-02-23T13:25:57;63.57;41.99;74.66;;
68279;Laerm;55108;51.790;10.960;2024-02-23T13:28:23;62.30;41.28;70.87;;